Time;durP1;ratioP1;P1;durP2;ratioP2;P2;SDS_P1;SDS_P2;PMS_P1;PMS_P2;Temp;Humidity;BMP_temperature;BMP_pressure;BME280_temperature;BME280_humidity;BME280_pressure;Samples;Min_cycle;Max_cycle;Signal;HPM_P1;HPM_P2
2022/06/08 00:00:19;;;;;;;1999.90;999.90;;;;;;;18.33;62.18;95163.94;5031490;28;20458;-69
2022/06/08 00:02:55;;;;;;;1999.90;999.90;;;;;;;18.14;62.04;95134.28;5032237;28;20544;-69
2022/06/08 00:05:21;;;;;;;1999.90;999.90;;;;;;;18.68;62.35;95212.41;5032119;28;20393;-69
2022/06/08 00:07:47;;;;;;;1999.90;999.90;;;;;;;18.59;62.47;95202.94;5032302;28;20026;-69
2022/06/08 00:10:12;;;;;;;1999.90;999.90;;;;;;;18.80;62.56;95229.59;5031553;28;20064;-69
2022/06/08 00:12:38;;;;;;;1999.90;999.90;;;;;;;18.52;62.38;95162.38;5032070;28;20025;-69
2022/06/08 00:15:08;;;;;;;1999.90;999.90;;;;;;;18.61;62.51;95158.34;5032194;28;20104;-69
2022/06/08 00:17:34;;;;;;;1999.90;999.90;;;;;;;18.49;62.14;95120.78;5030827;28;20060;-70
2022/06/08 00:19:59;;;;;;;1999.90;999.90;;;;;;;18.67;62.17;95142.69;5031729;28;20426;-69
2022/06/08 00:22:25;;;;;;;1999.90;999.90;;;;;;;18.68;61.55;95125.41;5031677;28;20108;-69
2022/06/08 00:24:50;;;;;;;1999.90;999.90;;;;;;;19.20;61.45;95191.47;5032058;28;20100;-70
2022/06/08 00:27:15;;;;;;;1999.90;999.90;;;;;;;18.92;61.04;95153.97;5031554;28;20053;-69
2022/06/08 00:29:41;;;;;;;1999.90;999.90;;;;;;;19.06;61.08;95150.75;5030054;28;20112;-69
2022/06/08 00:32:07;;;;;;;1999.90;999.90;;;;;;;19.21;60.82;95169.53;5031800;28;20025;-69
2022/06/08 00:34:32;;;;;;;1999.90;999.90;;;;;;;19.44;60.77;95195.72;5031580;28;20034;-69
2022/06/08 00:36:57;;;;;;;1999.90;999.90;;;;;;;18.95;60.44;95100.13;5032041;28;20028;-70
2022/06/08 00:39:23;;;;;;;1999.90;999.90;;;;;;;19.59;60.13;95185.97;5031447;28;20436;-69
2022/06/08 00:41:57;;;;;;;1999.90;999.90;;;;;;;19.42;59.87;95160.25;5032027;28;20083;-70
2022/06/08 00:44:31;;;;;;;1999.90;999.90;;;;;;;19.52;59.77;95164.28;5029988;28;20018;-69
2022/06/08 00:46:59;;;;;;;1999.90;999.90;;;;;;;19.32;60.62;95155.47;5031434;28;20025;-69
2022/06/08 00:49:40;;;;;;;1999.90;999.90;;;;;;;19.31;60.82;95140.41;5031165;28;20421;-69
2022/06/08 00:52:06;;;;;;;1999.90;999.90;;;;;;;19.40;60.65;95154.47;5030080;28;20029;-69
2022/06/08 00:54:37;;;;;;;1999.90;999.90;;;;;;;19.59;60.46;95167.09;5030871;28;20108;-70
2022/06/08 00:57:10;;;;;;;1999.90;999.90;;;;;;;19.26;60.41;95130.72;5031131;28;20504;-69
2022/06/08 00:59:39;;;;;;;1999.90;999.90;;;;;;;19.46;60.46;95131.44;5030806;28;20038;-70
2022/06/08 01:02:04;;;;;;;1999.90;999.90;;;;;;;19.62;60.44;95161.78;5031185;28;20033;-70
2022/06/08 01:04:30;;;;;;;1999.90;999.90;;;;;;;19.77;59.81;95159.31;5030961;28;20017;-70
2022/06/08 01:06:58;;;;;;;1999.90;999.90;;;;;;;19.90;59.84;95191.13;5031084;28;20033;-70
2022/06/08 01:09:29;;;;;;;1999.90;999.90;;;;;;;19.72;59.68;95142.28;5030280;28;20075;-70
2022/06/08 01:11:59;;;;;;;1999.90;999.90;;;;;;;19.55;59.67;95134.66;5030913;28;20060;-69
2022/06/08 01:14:26;;;;;;;1999.90;999.90;;;;;;;19.63;60.11;95149.06;5030725;28;20363;-69
2022/06/08 01:17:09;;;;;;;1999.90;999.90;;;;;;;19.86;59.94;95178.72;5030634;28;20516;-69
2022/06/08 01:19:37;;;;;;;1999.90;999.90;;;;;;;19.26;59.67;95087.56;5030144;28;20057;-70
2022/06/08 01:22:04;;;;;;;1999.90;999.90;;;;;;;19.86;59.77;95176.00;5030345;28;20025;-69
2022/06/08 01:24:31;;;;;;;1999.90;999.90;;;;;;;19.61;59.53;95141.34;5030603;28;20017;-69
2022/06/08 01:27:15;;;;;;;1999.90;999.90;;;;;;;19.59;59.49;95143.59;5030712;28;20494;-69
2022/06/08 01:30:07;;;;;;;1999.90;999.90;;;;;;;19.68;59.99;95168.44;5030226;28;20025;-69
2022/06/08 01:33:10;;;;;;;1999.90;999.90;;;;;;;19.70;60.02;95162.66;5030561;28;20040;-70
2022/06/08 01:35:57;;;;;;;1999.90;999.90;;;;;;;19.66;60.42;95162.63;5030574;28;20029;-69
2022/06/08 01:38:44;;;;;;;1999.90;999.90;;;;;;;19.68;60.05;95156.84;5029290;28;20033;-70
2022/06/08 01:41:43;;;;;;;1999.90;999.90;;;;;;;19.66;60.16;95159.94;5030425;28;20013;-70
2022/06/08 01:44:14;;;;;;;1999.90;999.90;;;;;;;19.67;60.21;95150.69;5030411;28;20068;-69
2022/06/08 01:46:49;;;;;;;1999.90;999.90;;;;;;;19.51;59.98;95100.69;5030364;28;20025;-69
2022/06/08 01:49:21;;;;;;;1999.90;999.90;;;;;;;19.87;59.64;95137.09;5028362;28;20121;-69
2022/06/08 01:52:02;;;;;;;1999.90;999.90;;;;;;;19.87;59.47;95132.50;5030526;28;20029;-70
2022/06/08 01:54:49;;;;;;;1999.90;999.90;;;;;;;19.87;59.33;95126.31;5029051;28;20656;-69
2022/06/08 01:57:33;;;;;;;1999.90;999.90;;;;;;;19.82;59.57;95124.69;5029980;28;20033;-69
2022/06/08 02:00:13;;;;;;;1999.90;999.90;;;;;;;19.77;59.53;95127.72;5029856;28;20029;-69
2022/06/08 02:02:38;;;;;;;1999.90;999.90;;;;;;;19.81;59.54;95120.44;5030141;28;20112;-69
2022/06/08 02:05:19;;;;;;;1999.90;999.90;;;;;;;19.82;59.75;95121.22;5029883;28;20109;-69
2022/06/08 02:07:50;;;;;;;1999.90;999.90;;;;;;;19.34;59.61;95054.16;5029924;28;20489;-69
2022/06/08 02:10:43;;;;;;;1999.90;999.90;;;;;;;19.77;59.65;95118.84;5029469;28;20394;-69
2022/06/08 02:13:35;;;;;;;1999.90;999.90;;;;;;;19.30;59.74;95052.56;5030304;28;20660;-69
2022/06/08 02:16:08;;;;;;;1999.90;999.90;;;;;;;19.34;59.60;95062.25;5028805;28;20544;-69
2022/06/08 02:18:58;;;;;;;1999.90;999.90;;;;;;;19.36;59.69;95062.69;5029903;28;20025;-69
2022/06/08 02:21:32;;;;;;;1999.90;999.90;;;;;;;19.60;59.95;95107.38;5029944;28;20056;-69
2022/06/08 02:24:04;;;;;;;1999.90;999.90;;;;;;;19.47;59.77;95106.78;5029922;28;20021;-69
2022/06/08 02:26:36;;;;;;;;;;;;;;;19.50;60.01;95110.69;5030064;28;20621;-69
2022/06/08 02:29:06;;;;;;;1999.90;999.90;;;;;;;19.23;60.57;95115.22;5029347;28;19909;-69
2022/06/08 02:31:43;;;;;;;1999.90;999.90;;;;;;;18.95;60.19;95067.00;5029505;28;20819;-70
2022/06/08 02:34:29;;;;;;;1999.90;999.90;;;;;;;18.68;60.35;95037.28;5029560;28;20105;-69
2022/06/08 02:37:08;;;;;;;1999.90;999.90;;;;;;;18.68;60.56;95042.69;5029468;28;20390;-70
2022/06/08 02:39:40;;;;;;;1999.90;999.90;;;;;;;18.76;60.42;95077.81;5028831;28;20112;-69
2022/06/08 02:42:10;;;;;;;1999.90;999.90;;;;;;;18.48;60.69;95032.25;5029627;28;20056;-69
2022/06/08 02:44:39;;;;;;;1999.90;999.90;;;;;;;18.59;60.66;95077.13;5028230;28;20520;-69
2022/06/08 02:47:15;;;;;;;1999.90;999.90;;;;;;;18.53;60.82;95062.38;5029615;28;20017;-69
2022/06/08 02:49:41;;;;;;;1999.90;999.90;;;;;;;18.30;60.80;95038.09;5029477;28;20036;-69
2022/06/08 02:52:17;;;;;;;1999.90;999.90;;;;;;;18.41;61.04;95071.38;5033642;28;20025;-69
2022/06/08 02:54:43;;;;;;;1999.90;999.90;;;;;;;18.19;61.17;95050.56;5033356;28;20033;-69
2022/06/08 02:57:29;;;;;;;1999.90;999.90;;;;;;;18.57;61.09;95109.00;5032724;28;20026;-69
2022/06/08 02:59:54;;;;;;;1999.90;999.90;;;;;;;18.53;61.39;95104.69;5030712;28;20120;-69
2022/06/08 03:02:35;;;;;;;1999.90;999.90;;;;;;;17.91;61.61;95026.50;5033242;28;20104;-69
2022/06/08 03:05:42;;;;;;;1999.90;999.90;;;;;;;18.33;61.76;95103.91;5032043;28;20033;-69
2022/06/08 03:08:19;;;;;;;1999.90;999.90;;;;;;;18.02;61.68;95059.06;5030112;28;20026;-69
2022/06/08 03:10:46;;;;;;;1999.90;999.90;;;;;;;17.93;61.86;95051.19;5030544;28;20034;-69
2022/06/08 03:13:27;;;;;;;1999.90;999.90;;;;;;;17.93;61.95;95051.97;5022693;28;20041;-69
2022/06/08 03:15:56;;;;;;;1999.90;999.90;;;;;;;17.89;62.16;95055.69;5032863;28;20030;-69
2022/06/08 03:18:22;;;;;;;1999.90;999.90;;;;;;;17.75;62.28;95039.25;5032189;28;20041;-69
2022/06/08 03:20:48;;;;;;;1999.90;999.90;;;;;;;17.77;62.25;95042.38;5033246;28;20034;-70
2022/06/08 03:23:13;;;;;;;1999.90;999.90;;;;;;;17.77;62.20;95047.75;5032916;28;20017;-69
2022/06/08 03:25:38;;;;;;;1999.90;999.90;;;;;;;17.83;61.86;95057.13;5033064;28;20033;-69
2022/06/08 03:28:04;;;;;;;1999.90;999.90;;;;;;;17.88;62.03;95051.47;5032652;28;20033;-69
2022/06/08 03:30:30;;;;;;;1999.90;999.90;;;;;;;18.04;62.04;95089.09;5032958;28;20033;-69
2022/06/08 03:32:55;;;;;;;1999.90;999.90;;;;;;;17.97;61.87;95089.72;5033138;28;20029;-70
2022/06/08 03:35:21;;;;;;;1999.90;999.90;;;;;;;17.56;61.67;95026.53;5031754;28;20059;-69
2022/06/08 03:37:46;;;;;;;1999.90;999.90;;;;;;;17.63;62.17;95048.97;5033011;28;20470;-70
2022/06/08 03:40:12;;;;;;;1999.90;999.90;;;;;;;17.96;61.97;95093.50;5032207;28;20078;-70
2022/06/08 03:42:38;;;;;;;1999.90;999.90;;;;;;;17.72;61.98;95069.53;5031499;28;20021;-70
2022/06/08 03:45:04;;;;;;;1999.90;999.90;;;;;;;17.83;62.06;95081.34;5032580;28;20028;-69
2022/06/08 03:47:35;;;;;;;1999.90;999.90;;;;;;;17.91;62.02;95091.91;5032581;28;20108;-69
2022/06/08 03:50:05;;;;;;;1999.90;999.90;;;;;;;18.00;61.81;95104.38;5032091;28;20030;-69
2022/06/08 03:52:35;;;;;;;1999.90;999.90;;;;;;;17.84;61.81;95082.88;5032440;28;20025;-69
2022/06/08 03:55:04;;;;;;;1999.90;999.90;;;;;;;17.97;62.09;95115.84;5032593;28;20029;-69
2022/06/08 03:57:31;;;;;;;1999.90;999.90;;;;;;;17.73;61.82;95077.28;5032415;28;20382;-69
2022/06/08 03:59:57;;;;;;;1999.90;999.90;;;;;;;17.74;61.54;95048.47;5030433;28;20025;-69
2022/06/08 04:02:24;;;;;;;1999.90;999.90;;;;;;;18.44;61.12;95121.06;5031381;28;20040;-71
2022/06/08 04:04:50;;;;;;;1999.90;999.90;;;;;;;18.75;60.73;95098.59;5032533;28;20021;-69
2022/06/08 04:07:15;;;;;;;1999.90;999.90;;;;;;;18.85;60.16;95056.81;5032485;28;20587;-70
2022/06/08 04:09:41;;;;;;;1999.90;999.90;;;;;;;19.25;58.88;95058.25;5031828;28;20026;-70
2022/06/08 04:12:08;;;;;;;1999.90;999.90;;;;;;;19.33;57.90;95032.94;5032048;28;20052;-69
2022/06/08 04:14:34;;;;;;;1999.90;999.90;;;;;;;19.54;57.36;95041.34;5031979;28;20033;-70
2022/06/08 04:17:01;;;;;;;1999.90;999.90;;;;;;;19.87;56.87;95066.94;5032278;28;20017;-70
2022/06/08 04:19:27;;;;;;;1999.90;999.90;;;;;;;20.24;56.32;95075.91;5031864;28;20021;-70
2022/06/08 04:21:52;;;;;;;1999.90;999.90;;;;;;;20.51;55.03;95073.16;5032244;28;20087;-70
2022/06/08 04:24:19;;;;;;;1999.90;999.90;;;;;;;20.57;54.18;95066.25;5031940;28;20053;-70
2022/06/08 04:26:44;;;;;;;1999.90;999.90;;;;;;;20.93;53.52;95102.56;5031727;28;20091;-69
2022/06/08 04:29:10;;;;;;;1999.90;999.90;;;;;;;21.10;53.26;95086.91;5031478;28;20482;-70
2022/06/08 04:31:36;;;;;;;1999.90;999.90;;;;;;;21.23;52.05;95070.00;5031531;28;20064;-70
2022/06/08 04:34:05;;;;;;;1999.90;999.90;;;;;;;21.73;51.74;95105.59;5031638;28;20756;-70
2022/06/08 04:36:31;;;;;;;1999.90;999.90;;;;;;;21.74;50.86;95065.78;5031479;28;20025;-69
2022/06/08 04:38:57;;;;;;;1999.90;999.90;;;;;;;21.67;50.01;95039.44;5030974;28;20021;-69
2022/06/08 04:41:23;;;;;;;1999.90;999.90;;;;;;;21.73;49.86;95031.75;5030084;28;20114;-70
2022/06/08 04:43:49;;;;;;;1999.90;999.90;;;;;;;22.24;49.67;95072.28;5031467;28;20043;-70
2022/06/08 04:46:17;;;;;;;1999.90;999.90;;;;;;;22.49;48.92;95083.22;5031288;28;20472;-70
2022/06/08 04:48:45;;;;;;;1999.90;999.90;;;;;;;22.51;48.43;95059.22;5030987;28;20021;-71
2022/06/08 04:51:11;;;;;;;1999.90;999.90;;;;;;;22.49;47.63;95033.66;5031305;28;20030;-69
2022/06/08 04:53:41;;;;;;;1999.90;999.90;;;;;;;22.63;47.87;95033.72;5031283;28;20406;-70
2022/06/08 04:56:07;;;;;;;1999.90;999.90;;;;;;;22.83;47.65;95053.13;5031032;28;20108;-70
2022/06/08 04:58:33;;;;;;;1999.90;999.90;;;;;;;22.90;46.86;95033.41;5030718;28;20748;-69
2022/06/08 05:00:59;;;;;;;1999.90;999.90;;;;;;;23.18;46.16;95065.19;5029994;28;20509;-70
2022/06/08 05:03:25;;;;;;;1999.90;999.90;;;;;;;23.37;46.47;95081.09;5031045;28;20065;-70
2022/06/08 05:05:50;;;;;;;1999.90;999.90;;;;;;;22.96;46.26;94996.59;5031128;28;20075;-70
2022/06/08 05:08:20;;;;;;;1999.90;999.90;;;;;;;23.41;46.25;95049.31;5030355;28;20040;-70
2022/06/08 05:10:48;;;;;;;1999.90;999.90;;;;;;;23.31;46.07;95034.59;5030963;28;20111;-70
2022/06/08 05:13:14;;;;;;;1999.90;999.90;;;;;;;23.29;45.58;95009.00;5030043;28;20041;-70
2022/06/08 05:15:41;;;;;;;1999.90;999.90;;;;;;;23.41;45.73;95013.25;5030768;28;20029;-70
2022/06/08 05:18:08;;;;;;;1999.90;999.90;;;;;;;23.52;45.83;95014.78;5030552;28;20105;-70
2022/06/08 05:20:36;;;;;;;1999.90;999.90;;;;;;;23.34;44.75;95014.03;5030510;28;20393;-70
2022/06/08 05:23:02;;;;;;;1999.90;999.90;;;;;;;23.49;45.28;95020.22;5030649;28;20175;-70
2022/06/08 05:25:31;;;;;;;1999.90;999.90;;;;;;;23.26;44.77;95015.97;5030766;28;20053;-70
2022/06/08 05:27:58;;;;;;;1999.90;999.90;;;;;;;23.32;43.97;95025.28;5030196;28;20053;-69
2022/06/08 05:30:25;;;;;;;1999.90;999.90;;;;;;;23.34;44.66;95022.97;5028941;28;20018;-69
2022/06/08 05:32:51;;;;;;;1999.90;999.90;;;;;;;23.60;44.08;95065.22;5030588;28;20091;-75
2022/06/08 05:35:17;;;;;;;1999.90;999.90;;;;;;;22.74;44.68;95022.88;5030650;28;20071;-73
2022/06/08 05:37:43;;;;;;;1999.90;999.90;;;;;;;22.40;46.48;95038.66;5030677;28;20032;-75
2022/06/08 05:40:09;;;;;;;1999.90;999.90;;;;;;;22.12;46.89;95050.94;5029845;28;20025;-72
2022/06/08 05:42:35;;;;;;;1999.90;999.90;;;;;;;21.88;46.81;95030.66;5029357;28;20112;-71
2022/06/08 05:45:00;;;;;;;1999.90;999.90;;;;;;;22.23;46.46;95030.09;5030863;28;20443;-72
2022/06/08 05:47:26;;;;;;;1999.90;999.90;;;;;;;22.83;45.62;95029.50;5029503;28;20386;-70
2022/06/08 05:49:51;;;;;;;1999.90;999.90;;;;;;;22.94;45.18;94998.94;5030103;28;20025;-69
2022/06/08 05:52:17;;;;;;;1999.90;999.90;;;;;;;22.76;44.20;94983.38;5030198;28;20482;-70
2022/06/08 05:54:44;;;;;;;1999.90;999.90;;;;;;;22.69;44.64;94983.38;5030053;28;20076;-70
2022/06/08 05:57:10;;;;;;;1999.90;999.90;;;;;;;23.28;44.98;95037.28;5020762;28;20184;-70
2022/06/08 05:59:36;;;;;;;1999.90;999.90;;;;;;;22.67;44.81;95039.88;5009923;28;20058;-70
2022/06/08 06:02:04;;;;;;;1999.90;999.90;;;;;;;23.36;44.59;95049.72;5010326;28;20065;-69
2022/06/08 06:04:29;;;;;;;1999.90;999.90;;;;;;;22.99;44.03;95020.25;5010387;28;20026;-69
2022/06/08 06:06:55;;;;;;;1999.90;999.90;;;;;;;21.57;46.26;95034.72;5010352;28;20018;-68
2022/06/08 06:09:20;;;;;;;1999.90;999.90;;;;;;;21.50;46.60;95015.75;5009822;28;20494;-68
2022/06/08 06:11:46;;;;;;;1999.90;999.90;;;;;;;20.79;47.76;95013.22;5014462;28;20064;-68
2022/06/08 06:14:12;;;;;;;1999.90;999.90;;;;;;;22.05;46.43;95048.16;5028374;28;20478;-68
2022/06/08 06:16:38;;;;;;;1999.90;999.90;;;;;;;22.50;45.86;95040.63;5030252;28;20032;-68
2022/06/08 06:19:05;;;;;;;1999.90;999.90;;;;;;;22.30;46.50;95054.50;5029890;28;20029;-69
2022/06/08 06:21:30;;;;;;;1999.90;999.90;;;;;;;21.65;45.38;94974.09;5028710;28;20021;-68
2022/06/08 06:23:59;;;;;;;1999.90;999.90;;;;;;;21.55;47.04;95039.75;5029775;28;20471;-68
2022/06/08 06:26:25;;;;;;;1999.90;999.90;;;;;;;21.48;46.87;95028.88;5028167;28;20112;-68
2022/06/08 06:28:51;;;;;;;1999.90;999.90;;;;;;;21.57;46.81;95028.56;5028467;28;20025;-68
2022/06/08 06:31:20;;;;;;;1999.90;999.90;;;;;;;22.70;45.81;95047.28;5029725;28;20024;-69
2022/06/08 06:33:46;;;;;;;1999.90;999.90;;;;;;;22.67;45.05;94982.97;5029824;28;20025;-69
2022/06/08 06:36:12;;;;;;;1999.90;999.90;;;;;;;23.26;44.53;94977.97;5029713;28;20022;-69
2022/06/08 06:38:37;;;;;;;1999.90;999.90;;;;;;;23.57;43.62;94962.03;5033042;28;20048;-68
2022/06/08 06:41:03;;;;;;;1999.90;999.90;;;;;;;24.34;43.20;95041.00;5040098;28;20017;-68
2022/06/08 06:43:28;;;;;;;1999.90;999.90;;;;;;;24.43;41.96;95006.03;5020840;28;20030;-69
2022/06/08 06:45:54;;;;;;;1999.90;999.90;;;;;;;24.71;42.11;95028.78;5008611;28;20424;-69
2022/06/08 06:48:19;;;;;;;1999.90;999.90;;;;;;;24.30;40.67;95027.41;5008065;28;20064;-68
2022/06/08 06:50:44;;;;;;;1999.90;999.90;;;;;;;23.41;41.72;95026.84;5009624;28;20482;-68
2022/06/08 06:53:12;;;;;;;1999.90;999.90;;;;;;;22.38;43.56;95022.03;5010115;28;20498;-70
2022/06/08 06:55:37;;;;;;;1999.90;999.90;;;;;;;21.77;45.25;95011.66;5009869;28;20026;-69
2022/06/08 06:58:03;;;;;;;1999.90;999.90;;;;;;;21.49;46.17;95027.72;5008377;28;20034;-70
2022/06/08 07:00:28;;;;;;;1999.90;999.90;;;;;;;21.98;44.88;94999.38;5009751;28;20026;-72
2022/06/08 07:02:54;;;;;;;1999.90;999.90;;;;;;;21.82;45.38;95007.03;5009955;28;20368;-72
2022/06/08 07:05:23;;;;;;;1999.90;999.90;;;;;;;21.45;47.01;95030.41;5009845;28;20092;-73
2022/06/08 07:07:49;;;;;;;1999.90;999.90;;;;;;;21.88;45.78;94994.69;5008359;28;20092;-70
2022/06/08 07:10:15;;;;;;;1999.90;999.90;;;;;;;21.49;46.79;95017.66;5007686;28;20066;-72
2022/06/08 07:12:41;;;;;;;1999.90;999.90;;;;;;;21.68;47.76;95016.63;5019241;28;20065;-71
2022/06/08 07:15:07;;;;;;;1999.90;999.90;;;;;;;21.31;47.09;95024.13;5028114;28;20438;-70
2022/06/08 07:17:32;;;;;;;1999.90;999.90;;;;;;;21.02;48.37;95026.53;5027671;28;20022;-70
2022/06/08 07:19:57;;;;;;;1999.90;999.90;;;;;;;21.87;46.42;95012.88;5027320;28;20075;-69
2022/06/08 07:22:23;;;;;;;1999.90;999.90;;;;;;;20.74;48.33;95008.94;5027680;28;20022;-70
2022/06/08 07:24:48;;;;;;;1999.90;999.90;;;;;;;21.22;48.43;95017.06;5028297;28;20030;-70
2022/06/08 07:27:14;;;;;;;1999.90;999.90;;;;;;;21.82;47.00;95017.88;5028567;28;20036;-68
2022/06/08 07:29:40;;;;;;;1999.90;999.90;;;;;;;22.13;45.39;95006.44;5027688;28;20032;-68
2022/06/08 07:32:05;;;;;;;1999.90;999.90;;;;;;;22.16;45.41;95000.28;5029565;28;20025;-69
2022/06/08 07:34:31;;;;;;;1999.90;999.90;;;;;;;22.36;45.52;95010.75;5029196;28;20036;-68
2022/06/08 07:36:57;;;;;;;1999.90;999.90;;;;;;;21.46;46.23;95006.84;5029046;28;20386;-68
2022/06/08 07:39:23;;;;;;;1999.90;999.90;;;;;;;22.67;45.08;94993.81;5032434;28;20497;-69
2022/06/08 07:41:49;;;;;;;1999.90;999.90;;;;;;;23.31;45.12;94993.88;5030726;28;20041;-69
2022/06/08 07:44:16;;;;;;;1999.90;999.90;;;;;;;21.86;46.53;94994.31;5032810;28;20040;-72
2022/06/08 07:46:42;;;;;;;1999.90;999.90;;;;;;;23.13;44.86;95000.47;5031979;28;20132;-72
2022/06/08 07:51:55;;;;;;;1999.90;999.90;;;;;;;23.87;42.94;94980.59;5033133;28;20123;-70
2022/06/08 07:54:25;;;;;;;1999.90;999.90;;;;;;;23.82;41.52;94983.72;5032743;28;20509;-71
2022/06/08 07:56:51;;;;;;;1999.90;999.90;;;;;;;24.11;40.95;94974.31;5030883;28;20014;-72
2022/06/08 07:59:18;;;;;;;1999.90;999.90;;;;;;;24.27;40.85;94973.84;5011034;28;20356;-72
2022/06/08 08:01:43;;;;;;;1999.90;999.90;;;;;;;24.48;41.71;94972.22;5012684;28;20731;-71
2022/06/08 08:04:08;;;;;;;1999.90;999.90;;;;;;;24.66;41.37;94967.44;5012641;28;20097;-71
2022/06/08 08:06:34;;;;;;;1999.90;999.90;;;;;;;24.48;39.81;94955.91;5012473;28;20030;-68
2022/06/08 08:09:02;;;;;;;1999.90;999.90;;;;;;;24.85;39.74;94966.91;5010751;28;20022;-69
2022/06/08 08:11:27;;;;;;;1999.90;999.90;;;;;;;25.20;39.09;94967.84;5011295;28;20030;-70
2022/06/08 08:13:53;;;;;;;1999.90;999.90;;;;;;;25.56;39.25;94964.78;4998670;28;20031;-69
2022/06/08 08:16:19;;;;;;;1999.90;999.90;;;;;;;25.82;38.18;94958.69;4991356;28;20023;-70
2022/06/08 08:18:44;;;;;;;1999.90;999.90;;;;;;;25.95;36.87;94945.34;4992384;28;20109;-71
2022/06/08 08:21:09;;;;;;;1999.90;999.90;;;;;;;25.43;36.55;94950.91;4991657;28;20026;-70
2022/06/08 08:23:35;;;;;;;1999.90;999.90;;;;;;;24.57;37.98;94950.81;4991689;28;20018;-69
2022/06/08 08:26:01;;;;;;;1999.90;999.90;;;;;;;24.62;38.64;94944.94;4992731;28;20034;-70
2022/06/08 08:28:26;;;;;;;1999.90;999.90;;;;;;;23.27;40.43;94941.53;5009625;28;20037;-70
2022/06/08 08:30:51;;;;;;;1999.90;999.90;;;;;;;23.25;40.81;94941.16;5030512;28;20017;-70
2022/06/08 08:33:17;;;;;;;1999.90;999.90;;;;;;;24.11;39.55;94944.44;5030685;28;20026;-70
2022/06/08 08:35:42;;;;;;;1999.90;999.90;;;;;;;24.79;39.44;94935.88;5030533;28;20025;-69
2022/06/08 08:38:08;;;;;;;1999.90;999.90;;;;;;;23.44;39.78;94939.19;5030189;28;20455;-69
2022/06/08 08:40:39;;;;;;;1999.90;999.90;;;;;;;24.08;40.03;94945.22;5031745;28;20052;-69
2022/06/08 08:43:09;;;;;;;1999.90;999.90;;;;;;;24.19;38.09;94945.16;5025619;28;20034;-70
2022/06/08 08:45:44;;;;;;;1999.90;999.90;;;;;;;23.79;38.83;94936.38;5010703;28;20042;-70
2022/06/08 08:48:19;;;;;;;1999.90;999.90;;;;;;;25.10;38.31;94946.94;5011238;28;20061;-71
2022/06/08 08:50:50;;;;;;;1999.90;999.90;;;;;;;25.86;37.74;94934.91;5010631;28;20032;-71
2022/06/08 08:53:34;;;;;;;1999.90;999.90;;;;;;;26.35;36.39;94919.09;5011823;28;20712;-72
2022/06/08 08:56:12;;;;;;;1999.90;999.90;;;;;;;26.81;35.96;94923.13;5010512;28;20040;-68
2022/06/08 08:58:42;;;;;;;1999.90;999.90;;;;;;;27.08;33.83;94925.06;5018641;28;20116;-68
2022/06/08 09:01:33;;;;;;;1999.90;999.90;;;;;;;26.36;33.89;94922.56;5030010;28;20021;-68
2022/06/08 09:04:05;;;;;;;1999.90;999.90;;;;;;;26.40;34.34;94924.06;5030830;28;20037;-69
2022/06/08 09:06:32;;;;;;;1999.90;999.90;;;;;;;27.15;34.02;94917.53;5031059;28;20029;-68
2022/06/08 09:09:02;;;;;;;1999.90;999.90;;;;;;;27.20;31.77;94897.16;5030769;28;20025;-69
2022/06/08 09:11:39;;;;;;;1999.90;999.90;;;;;;;27.51;31.28;94897.00;5031069;28;20018;-68
2022/06/08 09:14:14;;;;;;;1999.90;999.90;;;;;;;27.11;31.29;94903.16;5030376;28;20405;-69
2022/06/08 09:16:46;;;;;;;1999.90;999.90;;;;;;;27.21;31.74;94901.44;5031114;28;20029;-69
2022/06/08 09:19:26;;;;;;;1999.90;999.90;;;;;;;26.85;31.49;94902.00;5030762;28;20025;-69
2022/06/08 09:22:16;;;;;;;1999.90;999.90;;;;;;;26.42;31.94;94894.50;5030876;28;20720;-68
2022/06/08 09:25:00;;;;;;;1999.90;999.90;;;;;;;27.58;31.42;94880.47;5027903;28;20117;-68
2022/06/08 09:27:38;;;;;;;1999.90;999.90;;;;;;;28.05;29.67;94877.59;5030931;28;20021;-67
2022/06/08 09:30:19;;;;;;;1999.90;999.90;;;;;;;28.26;30.77;94873.66;5029825;28;20033;-69
2022/06/08 09:32:51;;;;;;;1999.90;999.90;;;;;;;28.11;31.52;94871.22;5030364;28;20110;-69
2022/06/08 09:35:26;;;;;;;1999.90;999.90;;;;;;;28.24;31.23;94876.78;5029254;28;20505;-70
2022/06/08 09:37:59;;;;;;;1999.90;999.90;;;;;;;28.43;31.64;94876.00;5030436;28;20103;-69
2022/06/08 09:40:38;;;;;;;1999.90;999.90;;;;;;;28.39;30.30;94867.09;5028943;28;20025;-68
2022/06/08 09:43:25;;;;;;;1999.90;999.90;;;;;;;28.42;30.05;94860.00;5027166;28;20377;-74
2022/06/08 09:45:54;;;;;;;1999.90;999.90;;;;;;;28.24;28.52;94854.91;5011214;28;20022;-74
2022/06/08 09:51:39;;;;;;;1999.90;999.90;;;;;;;27.63;29.46;94855.38;5010634;28;20521;-72
2022/06/08 09:54:23;;;;;;;1999.90;999.90;;;;;;;26.85;30.71;94858.34;5009277;28;20033;-72
2022/06/08 09:57:26;;;;;;;1999.90;999.90;;;;;;;27.95;30.79;94855.53;5010521;28;20049;-72
2022/06/08 10:00:04;;;;;;;1999.90;999.90;;;;;;;26.78;30.31;94847.56;5023929;28;20040;-67
2022/06/08 10:02:38;;;;;;;1999.90;999.90;;;;;;;26.12;31.62;94848.91;5030089;28;20120;-69
2022/06/08 10:05:38;;;;;;;1999.90;999.90;;;;;;;26.15;32.08;94830.97;5028837;28;20018;-69
2022/06/08 10:08:22;;;;;;;1999.90;999.90;;;;;;;25.66;31.85;94833.16;5029641;28;20022;-70
2022/06/08 10:10:47;;;;;;;1999.90;999.90;;;;;;;25.43;32.96;94833.81;5029663;28;20029;-69
2022/06/08 10:13:20;;;;;;;1999.90;999.90;;;;;;;26.63;31.38;94825.19;5027585;28;20120;-70
2022/06/08 10:15:52;;;;;;;1999.90;999.90;;;;;;;26.90;30.81;94821.63;5028715;28;20022;-68
2022/06/08 10:18:33;;;;;;;1999.90;999.90;;;;;;;27.63;29.68;94815.16;5029272;28;20092;-68
2022/06/08 10:21:04;;;;;;;1999.90;999.90;;;;;;;28.67;30.49;94818.38;5029898;28;20168;-68
2022/06/08 10:23:35;;;;;;;;;;;;;;;29.00;28.98;94819.88;5030181;28;20518;-70
2022/06/08 10:26:08;;;;;;;1999.90;999.90;;;;;;;29.23;29.09;94812.66;5029878;28;19952;-69
2022/06/08 10:28:47;;;;;;;1999.90;999.90;;;;;;;29.45;29.11;94815.56;5019558;28;20721;-71
2022/06/08 10:31:19;;;;;;;1999.90;999.90;;;;;;;29.42;28.05;94805.47;4990483;28;20683;-71
2022/06/08 10:33:53;;;;;;;1999.90;999.90;;;;;;;29.37;28.07;94797.78;4990669;28;20026;-73
2022/06/08 10:36:20;;;;;;;1999.90;999.90;;;;;;;29.32;27.12;94787.34;4990479;28;20048;-73
2022/06/08 10:38:45;;;;;;;1999.90;999.90;;;;;;;29.33;27.63;94797.09;4990105;28;20491;-72
2022/06/08 10:44:42;;;;;;;1999.90;999.90;;;;;;;29.12;27.64;94790.25;5000959;28;20422;-73
2022/06/08 10:47:18;;;;;;;1999.90;999.90;;;;;;;29.16;29.06;94796.41;5008885;28;20032;-76
2022/06/08 10:49:50;;;;;;;1999.90;999.90;;;;;;;28.54;27.74;94790.91;5009996;28;20064;-66
2022/06/08 10:52:18;;;;;;;1999.90;999.90;;;;;;;28.71;27.88;94791.66;5009998;28;20034;-70
2022/06/08 10:54:54;;;;;;;1999.90;999.90;;;;;;;28.91;26.92;94781.38;5010172;28;20463;-72
2022/06/08 10:57:39;;;;;;;1999.90;999.90;;;;;;;28.19;27.91;94778.84;5008780;28;20117;-72
2022/06/08 11:00:19;;;;;;;1999.90;999.90;;;;;;;27.93;27.79;94775.91;5008959;28;20026;-73
2022/06/08 11:03:03;;;;;;;1999.90;999.90;;;;;;;28.16;28.32;94772.28;5010225;28;20074;-72
2022/06/08 11:05:34;;;;;;;1999.90;999.90;;;;;;;29.27;28.70;94774.97;5009682;28;20022;-73
2022/06/08 11:07:59;;;;;;;1999.90;999.90;;;;;;;30.23;27.40;94768.66;5008295;28;20045;-72
2022/06/08 11:10:55;;;;;;;1999.90;999.90;;;;;;;31.08;26.03;94773.31;5008368;28;20482;-73
2022/06/08 11:13:26;;;;;;;1999.90;999.90;;;;;;;30.48;24.20;94763.13;5009919;28;20301;-71
2022/06/08 11:16:00;;;;;;;;;;;;;;;31.24;23.80;94769.63;4994589;28;20049;-70
2022/06/08 11:18:45;;;;;;;1999.90;999.90;;;;;;;31.55;24.35;94748.47;4993240;28;20065;-72